TimeCST,TemperatureF,Dew PointF,Humidity,Sea Level PressureIn,VisibilityMPH,Wind Direction,Wind SpeedMPH,Gust SpeedMPH,PrecipitationIn,Events,Conditions,WindDirDegrees,DateUTC
12:07 AM,51.8,48.2,88,30.28,5.0,Calm,Calm,-,N/A,,Clear,0,2013-01-25 06:07:00
12:26 AM,50.0,46.4,87,30.28,2.0,Calm,Calm,-,N/A,,Clear,0,2013-01-25 06:26:00
12:36 AM,51.8,46.4,82,30.28,6.0,Calm,Calm,-,N/A,,Haze,0,2013-01-25 06:36:00
12:43 AM,51.8,46.4,82,30.28,1.2,Calm,Calm,-,N/A,,Clear,0,2013-01-25 06:43:00
12:52 AM,51.8,46.4,82,30.28,0.5,Calm,Calm,-,N/A,Fog,Fog,0,2013-01-25 06:52:00
12:56 AM,51.1,46.9,86,30.24,0.5,Calm,Calm,-,N/A,Fog,Fog,0,2013-01-25 06:56:00
1:08 AM,51.8,48.2,88,30.28,2.0,Calm,Calm,-,N/A,,Clear,0,2013-01-25 07:08:00
1:15 AM,53.6,48.2,82,30.28,1.2,South,3.5,-,N/A,,Haze,180,2013-01-25 07:15:00
1:20 AM,51.8,48.2,88,30.27,3.0,South,3.5,-,N/A,,Clear,170,2013-01-25 07:20:00
1:32 AM,50.0,46.4,87,30.27,1.5,Calm,Calm,-,N/A,,Clear,0,2013-01-25 07:32:00
1:52 AM,50.0,46.4,87,30.27,0.8,Calm,Calm,-,N/A,,Clear,0,2013-01-25 07:52:00
1:56 AM,51.1,46.0,83,30.23,0.5,Calm,Calm,-,N/A,,Haze,0,2013-01-25 07:56:00
2:04 AM,50.0,46.4,87,30.26,0.2,Calm,Calm,-,N/A,Fog,Fog,0,2013-01-25 08:04:00
2:49 AM,48.2,46.4,93,30.26,0.2,Calm,Calm,-,N/A,Fog,Fog,0,2013-01-25 08:49:00
2:56 AM,48.9,45.0,86,30.22,0.2,Calm,Calm,-,N/A,Fog,Fog,0,2013-01-25 08:56:00
3:19 AM,46.4,42.8,87,30.26,0.2,Calm,Calm,-,N/A,Fog,Fog,0,2013-01-25 09:19:00
3:28 AM,46.4,42.8,87,30.25,0.2,Calm,Calm,-,N/A,,Haze,0,2013-01-25 09:28:00
3:56 AM,46.0,42.1,86,30.22,0.2,NE,3.5,-,N/A,Fog,Fog,50,2013-01-25 09:56:00
4:56 AM,45.0,41.0,86,30.23,0.2,Calm,Calm,-,N/A,Fog,Fog,0,2013-01-25 10:56:00
5:25 AM,46.4,42.8,87,30.27,0.5,Calm,Calm,-,N/A,Fog,Fog,0,2013-01-25 11:25:00
5:43 AM,44.6,41.0,87,30.28,0.2,Calm,Calm,-,N/A,Fog,Fog,0,2013-01-25 11:43:00
5:56 AM,44.1,39.9,85,30.25,0.2,Calm,Calm,-,N/A,Fog,Fog,0,2013-01-25 11:56:00
6:35 AM,46.4,42.8,87,30.29,0.2,Calm,Calm,-,N/A,Fog,Fog,0,2013-01-25 12:35:00
6:56 AM,46.0,42.1,86,30.26,0.2,Calm,Calm,-,N/A,Fog,Fog,0,2013-01-25 12:56:00
7:32 AM,50.0,46.4,87,30.30,0.8,Calm,Calm,-,N/A,,Mostly Cloudy,0,2013-01-25 13:32:00
7:39 AM,51.8,48.2,88,30.30,2.0,Calm,Calm,-,N/A,,Mostly Cloudy,0,2013-01-25 13:39:00
7:56 AM,54.0,50.0,86,30.27,5.0,Calm,Calm,-,N/A,,Scattered Clouds,0,2013-01-25 13:56:00
8:56 AM,60.1,53.1,78,30.27,7.0,ESE,4.6,-,N/A,,Scattered Clouds,110,2013-01-25 14:56:00
9:56 AM,64.9,54.0,68,30.27,9.0,South,4.6,-,N/A,,Scattered Clouds,180,2013-01-25 15:56:00
10:56 AM,71.1,53.1,53,30.23,10.0,SW,12.7,-,N/A,,Mostly Cloudy,220,2013-01-25 16:56:00
11:56 AM,72.0,52.0,49,30.20,10.0,SW,13.8,20.7,N/A,,Mostly Cloudy,220,2013-01-25 17:56:00
12:56 PM,72.0,51.1,48,30.17,10.0,SSW,18.4,26.5,N/A,,Mostly Cloudy,210,2013-01-25 18:56:00
1:56 PM,69.1,52.0,54,30.17,10.0,SSW,12.7,-,N/A,,Mostly Cloudy,210,2013-01-25 19:56:00
2:56 PM,70.0,50.0,49,30.16,10.0,SSW,10.4,-,N/A,,Mostly Cloudy,200,2013-01-25 20:56:00
3:56 PM,71.1,48.9,45,30.15,10.0,SW,12.7,18.4,N/A,,Mostly Cloudy,220,2013-01-25 21:56:00
4:56 PM,68.0,51.1,55,30.14,10.0,SSW,12.7,-,N/A,,Mostly Cloudy,200,2013-01-25 22:56:00
5:56 PM,64.0,51.1,63,30.14,10.0,SSW,9.2,-,N/A,,Mostly Cloudy,200,2013-01-25 23:56:00
6:56 PM,61.0,51.1,70,30.15,10.0,SSW,5.8,-,N/A,,Mostly Cloudy,200,2013-01-26 00:56:00
7:26 PM,-9999,-9999,N/A,-9999,-9999.0,North,-9999.0,-,N/A,,Unknown,0,2013-01-26 01:26:00
7:56 PM,59.0,52.0,78,30.15,9.0,SSW,3.5,-,N/A,,Partly Cloudy,210,2013-01-26 01:56:00
8:56 PM,57.0,50.0,77,30.16,8.0,Calm,Calm,-,N/A,,Clear,0,2013-01-26 02:56:00
9:56 PM,57.0,52.0,83,30.17,6.0,SSW,5.8,-,N/A,,Haze,210,2013-01-26 03:56:00
10:56 PM,59.0,53.1,81,30.17,7.0,SW,4.6,-,0.00,,Clear,230,2013-01-26 04:56:00
11:00 PM,-9999,-9999,N/A,-9999,-9999.0,North,-9999.0,-,N/A,,Unknown,0,2013-01-26 05:00:00
11:56 PM,55.9,51.1,84,30.15,6.0,SW,5.8,-,N/A,,Haze,220,2013-01-26 05:56:00